Time;durP1;ratioP1;P1;durP2;ratioP2;P2;SDS_P1;SDS_P2;PMS_P1;PMS_P2;Temp;Humidity;BMP_temperature;BMP_pressure;BME280_temperature;BME280_humidity;BME280_pressure;Samples;Min_cycle;Max_cycle;Signal;HPM_P1;HPM_P2
2023/09/15 03:02:23;;;;;;;2.63;1.85;;;23.00;54.60;;;;;;5140411;22;46049;-81
2023/09/15 03:04:49;;;;;;;1.63;1.52;;;23.00;54.80;;;;;;4982064;28;44987;-81
2023/09/15 03:07:15;;;;;;;1.90;1.52;;;23.00;54.70;;;;;;4985545;28;45467;-81
2023/09/15 03:09:43;;;;;;;2.58;1.73;;;23.00;54.70;;;;;;4985026;28;45172;-83
2023/09/15 03:12:08;;;;;;;3.20;1.70;;;23.00;54.70;;;;;;4955444;28;46448;-84
2023/09/15 03:14:34;;;;;;;1.65;1.52;;;23.00;54.70;;;;;;4945821;28;45268;-87
2023/09/15 03:17:00;;;;;;;2.58;2.00;;;23.00;54.60;;;;;;4952339;28;47089;-85
2023/09/15 03:19:26;;;;;;;2.20;1.83;;;23.00;54.60;;;;;;4943151;28;46776;-84
2023/09/15 03:21:52;;;;;;;2.05;1.77;;;23.00;54.60;;;;;;4955306;28;45556;-83
2023/09/15 03:24:18;;;;;;;1.75;1.63;;;22.90;54.50;;;;;;4995658;28;44891;-83
2023/09/15 03:26:45;;;;;;;2.00;1.80;;;23.00;54.60;;;;;;4956151;28;45808;-81
2023/09/15 03:29:10;;;;;;;3.00;2.00;;;23.00;54.60;;;;;;4967249;28;45207;-83
2023/09/15 03:31:36;;;;;;;1.70;1.60;;;23.00;54.60;;;;;;4970672;28;45236;-82
2023/09/15 03:34:03;;;;;;;2.15;1.70;;;23.00;54.50;;;;;;4992386;28;44920;-86
2023/09/15 03:36:29;;;;;;;3.72;1.85;;;23.00;54.50;;;;;;4977006;28;45576;-82
2023/09/15 03:38:56;;;;;;;1.75;1.58;;;22.90;54.40;;;;;;4994251;28;44661;-82
2023/09/15 03:41:24;;;;;;;1.60;1.50;;;23.00;54.50;;;;;;4972771;28;45005;-81
2023/09/15 03:43:50;;;;;;;2.00;1.63;;;23.00;54.50;;;;;;4960969;28;46361;-82
2023/09/15 03:46:16;;;;;;;3.70;1.67;;;22.90;54.40;;;;;;4983432;28;45762;-81
2023/09/15 03:48:42;;;;;;;1.80;1.70;;;22.90;54.40;;;;;;4973378;28;45316;-81
2023/09/15 03:51:08;;;;;;;1.70;1.60;;;22.90;54.40;;;;;;4954793;28;45344;-81
2023/09/15 03:53:34;;;;;;;2.05;1.80;;;22.90;54.40;;;;;;4962672;28;45009;-83
2023/09/15 03:56:00;;;;;;;1.85;1.65;;;23.00;54.40;;;;;;4979604;28;45372;-82
2023/09/15 03:58:26;;;;;;;2.15;1.95;;;22.90;54.30;;;;;;4947904;28;47009;-81
2023/09/15 04:00:52;;;;;;;2.08;1.88;;;22.90;54.30;;;;;;4970652;28;45314;-81
2023/09/15 04:03:20;;;;;;;2.00;1.85;;;22.90;54.30;;;;;;4998733;28;44876;-85
2023/09/15 04:05:46;;;;;;;2.00;1.85;;;22.90;54.30;;;;;;4967288;28;45303;-84
2023/09/15 04:08:13;;;;;;;2.85;1.65;;;22.90;54.20;;;;;;4959531;28;45569;-81
2023/09/15 04:10:39;;;;;;;1.63;1.52;;;22.90;54.20;;;;;;4992937;28;46500;-81
2023/09/15 04:13:06;;;;;;;1.73;1.52;;;22.90;54.20;;;;;;4970736;28;45293;-82
2023/09/15 04:15:32;;;;;;;1.60;1.50;;;22.90;54.20;;;;;;4960601;28;46563;-84
2023/09/15 04:17:57;;;;;;;2.00;1.80;;;22.90;54.20;;;;;;4979943;28;45518;-81
2023/09/15 04:20:23;;;;;;;2.50;2.05;;;22.90;54.20;;;;;;4969943;28;45280;-80
2023/09/15 04:22:49;;;;;;;2.05;1.80;;;22.90;54.20;;;;;;4973586;28;45597;-81
2023/09/15 04:25:14;;;;;;;2.50;1.88;;;22.90;54.20;;;;;;4982000;28;45228;-84
2023/09/15 04:27:40;;;;;;;2.10;1.90;;;22.90;54.10;;;;;;4965013;28;45280;-82
2023/09/15 04:30:11;;;;;;;2.08;1.63;;;22.90;54.10;;;;;;4979315;28;45807;-81
2023/09/15 04:32:37;;;;;;;2.22;2.00;;;22.90;54.00;;;;;;4953801;28;45377;-82
2023/09/15 04:35:09;;;;;;;1.70;1.60;;;22.90;54.10;;;;;;4967899;28;45326;-85
2023/09/15 04:37:35;;;;;;;1.98;1.80;;;22.90;54.10;;;;;;4962508;28;44740;-86
2023/09/15 04:40:05;;;;;;;3.70;1.92;;;22.80;54.70;;;;;;4993395;28;45407;-82
2023/09/15 04:42:30;;;;;;;2.40;2.20;;;22.90;54.10;;;;;;4973624;28;45094;-82
2023/09/15 04:44:57;;;;;;;2.08;1.90;;;22.90;54.10;;;;;;4979438;28;45615;-83
2023/09/15 04:47:36;;;;;;;3.58;1.90;;;22.90;54.00;;;;;;4989716;28;44857;-81
2023/09/15 04:50:06;;;;;;;1.95;1.80;;;22.80;53.70;;;;;;4981824;28;45864;-81
2023/09/15 04:52:32;;;;;;;2.05;1.88;;;22.80;54.00;;;;;;4994088;28;44900;-84
2023/09/15 04:54:57;;;;;;;2.17;1.98;;;22.80;54.00;;;;;;4993864;28;45869;-85
2023/09/15 04:57:24;;;;;;;3.15;1.98;;;22.80;54.00;;;;;;4958493;28;45393;-80
2023/09/15 04:59:49;;;;;;;1.92;1.80;;;22.80;54.00;;;;;;4994325;28;45189;-80
2023/09/15 05:02:15;;;;;;;2.03;1.88;;;22.80;54.00;;;;;;4971334;28;45843;-81
2023/09/15 05:04:41;;;;;;;2.33;2.10;;;22.80;54.00;;;;;;4973749;28;45761;-82
2023/09/15 05:07:07;;;;;;;2.53;1.63;;;22.80;54.00;;;;;;4958570;28;45528;-83
2023/09/15 05:09:33;;;;;;;2.08;1.90;;;22.80;54.00;;;;;;4961027;28;45270;-80
2023/09/15 05:12:00;;;;;;;3.20;1.95;;;22.80;54.00;;;;;;4989987;28;45609;-80
2023/09/15 05:14:32;;;;;;;1.80;1.58;;;22.80;54.00;;;;;;4968653;28;46172;-81
2023/09/15 05:16:58;;;;;;;1.95;1.85;;;22.80;53.90;;;;;;4989507;28;45598;-81
2023/09/15 05:19:47;;;;;;;2.15;1.95;;;22.80;53.90;;;;;;4976631;28;45246;-83
2023/09/15 05:22:12;;;;;;;2.13;1.70;;;22.80;53.50;;;;;;4977253;28;45758;-83
2023/09/15 05:24:38;;;;;;;1.65;1.48;;;22.80;53.90;;;;;;4978021;28;46970;-82
2023/09/15 05:27:04;;;;;;;1.83;1.73;;;22.80;53.90;;;;;;4974543;28;45440;-81
2023/09/15 05:29:30;;;;;;;2.03;1.83;;;22.80;53.90;;;;;;4956938;28;45788;-80
2023/09/15 05:31:56;;;;;;;3.72;1.85;;;22.80;53.90;;;;;;4942191;28;45579;-83
2023/09/15 05:34:21;;;;;;;2.03;1.80;;;22.80;53.90;;;;;;4944547;28;46392;-83
2023/09/15 05:36:48;;;;;;;3.28;2.05;;;22.80;53.90;;;;;;4942653;28;45688;-83
2023/09/15 05:39:14;;;;;;;3.00;2.05;;;22.80;53.80;;;;;;4956410;28;44679;-83
2023/09/15 05:41:40;;;;;;;4.20;2.20;;;22.80;53.80;;;;;;4956676;28;45003;-82
2023/09/15 05:44:06;;;;;;;2.33;1.85;;;22.80;53.90;;;;;;4987983;28;46372;-84
2023/09/15 05:46:33;;;;;;;2.45;2.08;;;22.80;53.80;;;;;;4957310;28;45793;-83
2023/09/15 05:48:59;;;;;;;2.00;1.80;;;22.80;53.80;;;;;;4974272;28;45526;-81
2023/09/15 05:51:25;;;;;;;2.20;1.80;;;22.80;53.80;;;;;;4954340;28;45648;-81
2023/09/15 05:53:51;;;;;;;2.10;1.90;;;22.80;53.80;;;;;;4973883;28;45268;-85
2023/09/15 05:56:17;;;;;;;2.72;1.88;;;22.80;53.80;;;;;;4968423;28;45026;-82
2023/09/15 05:58:43;;;;;;;2.97;1.90;;;22.80;53.80;;;;;;4964949;28;45041;-83
2023/09/15 06:01:09;;;;;;;6.80;1.92;;;22.80;53.80;;;;;;4926192;28;46073;-82
2023/09/15 06:03:36;;;;;;;3.33;1.98;;;22.80;53.80;;;;;;4954026;28;46400;-84
2023/09/15 06:06:02;;;;;;;2.45;2.10;;;22.70;53.70;;;;;;4952180;28;45230;-82
2023/09/15 06:08:28;;;;;;;3.05;1.98;;;22.70;53.70;;;;;;4954452;28;44791;-82
2023/09/15 06:10:54;;;;;;;2.85;2.00;;;22.70;53.60;;;;;;4960678;28;45694;-82
2023/09/15 06:13:19;;;;;;;1.98;1.45;;;22.80;53.70;;;;;;4951974;28;46536;-81
2023/09/15 06:15:45;;;;;;;2.30;2.10;;;22.70;53.60;;;;;;4899257;28;44977;-85
2023/09/15 06:18:12;;;;;;;4.57;1.92;;;22.80;53.70;;;;;;4941139;28;44758;-82
2023/09/15 06:20:40;;;;;;;2.70;1.65;;;22.80;53.70;;;;;;4954114;28;45483;-83
2023/09/15 06:23:05;;;;;;;7.05;1.98;;;22.80;53.70;;;;;;4954665;28;46574;-84
2023/09/15 06:25:31;;;;;;;2.10;1.90;;;22.80;53.70;;;;;;4968805;28;45330;-86
2023/09/15 06:27:59;;;;;;;2.47;1.85;;;22.70;53.60;;;;;;4947481;28;45521;-82
2023/09/15 06:30:26;;;;;;;2.22;2.00;;;22.70;53.60;;;;;;4949566;28;45189;-82
2023/09/15 06:32:56;;;;;;;1.88;1.70;;;22.70;53.70;;;;;;4944126;28;45545;-83
2023/09/15 06:35:25;;;;;;;2.30;2.10;;;22.80;53.70;;;;;;4932788;28;45346;-83
2023/09/15 06:37:51;;;;;;;2.30;1.80;;;22.70;53.60;;;;;;4954116;28;45745;-82
2023/09/15 06:40:20;;;;;;;4.13;1.92;;;22.70;53.70;;;;;;4953395;28;45764;-88
2023/09/15 06:42:46;;;;;;;4.35;1.92;;;22.70;53.70;;;;;;4921372;28;46488;-84
2023/09/15 06:45:12;;;;;;;2.15;1.95;;;22.70;53.60;;;;;;4969164;28;45575;-84
2023/09/15 06:47:38;;;;;;;2.35;1.70;;;22.70;53.70;;;;;;4938002;28;45388;-81
2023/09/15 06:50:08;;;;;;;2.75;1.70;;;22.70;53.60;;;;;;4949066;28;45875;-82
2023/09/15 06:52:34;;;;;;;1.75;1.60;;;22.70;53.60;;;;;;4950639;28;46223;-81
2023/09/15 06:55:00;;;;;;;2.70;1.73;;;22.70;53.60;;;;;;4952308;28;46184;-82
2023/09/15 06:57:25;;;;;;;2.58;1.73;;;22.70;54.30;;;;;;4947648;28;44796;-83
2023/09/15 06:59:52;;;;;;;2.83;1.23;;;22.70;53.60;;;;;;4935069;28;45312;-83
2023/09/15 07:02:18;;;;;;;1.92;1.73;;;22.70;53.70;;;;;;4911623;28;46537;-81
2023/09/15 07:04:44;;;;;;;2.40;1.67;;;22.70;53.70;;;;;;4953924;28;44825;-81
2023/09/15 07:07:13;;;;;;;1.60;1.50;;;22.80;53.70;;;;;;4927106;28;45490;-82
2023/09/15 07:09:38;;;;;;;1.83;1.63;;;22.70;53.60;;;;;;4938420;28;45308;-81
2023/09/15 07:12:04;;;;;;;1.88;1.60;;;22.70;53.60;;;;;;4958854;28;45159;-83
2023/09/15 07:14:30;;;;;;;2.17;1.70;;;22.70;53.60;;;;;;4949027;28;45671;-83
2023/09/15 07:16:56;;;;;;;1.50;1.40;;;22.70;53.60;;;;;;4929220;28;45045;-83
2023/09/15 07:19:21;;;;;;;1.73;1.63;;;22.70;53.60;;;;;;4935003;28;45294;-84
2023/09/15 07:21:49;;;;;;;2.53;1.55;;;22.70;53.60;;;;;;4956087;28;46791;-82
2023/09/15 07:24:15;;;;;;;4.63;1.70;;;22.70;53.70;;;;;;4953858;28;45681;-86
2023/09/15 07:26:40;;;;;;;2.10;1.60;;;22.70;53.70;;;;;;4948185;28;45643;-83
2023/09/15 07:29:07;;;;;;;2.53;1.70;;;22.70;53.70;;;;;;4927914;28;45168;-83
2023/09/15 07:31:34;;;;;;;1.65;1.20;;;22.70;53.60;;;;;;4945938;28;45550;-82
2023/09/15 07:34:01;;;;;;;1.73;1.60;;;22.70;53.60;;;;;;4945689;28;45340;-81
2023/09/15 07:36:26;;;;;;;1.95;1.60;;;22.70;53.70;;;;;;4949046;28;45465;-83
2023/09/15 07:38:53;;;;;;;1.98;1.77;;;22.70;53.70;;;;;;4948050;28;44876;-81
2023/09/15 07:41:19;;;;;;;1.48;1.30;;;22.70;53.60;;;;;;4946822;28;45644;-84
2023/09/15 07:43:45;;;;;;;2.53;1.70;;;22.70;53.70;;;;;;4949381;28;46895;-82
2023/09/15 07:46:12;;;;;;;1.95;1.60;;;22.70;53.70;;;;;;4928848;28;44802;-82
2023/09/15 07:48:38;;;;;;;1.42;1.33;;;22.70;53.70;;;;;;4938265;28;44842;-83
2023/09/15 07:51:03;;;;;;;1.77;1.50;;;22.70;53.60;;;;;;4935593;28;47050;-83
2023/09/15 07:53:29;;;;;;;1.50;1.40;;;22.70;53.70;;;;;;4931772;28;46544;-81
2023/09/15 07:55:55;;;;;;;2.42;1.77;;;22.70;53.70;;;;;;4926459;28;45315;-82
2023/09/15 07:58:21;;;;;;;1.80;1.50;;;22.70;53.70;;;;;;4950447;28;45331;-83
2023/09/15 08:00:47;;;;;;;4.30;1.38;;;22.70;53.70;;;;;;4952045;28;46220;-82
2023/09/15 08:03:13;;;;;;;3.25;2.00;;;22.70;53.70;;;;;;4986266;28;45345;-83
2023/09/15 08:05:41;;;;;;;1.88;1.20;;;22.70;53.70;;;;;;4973600;28;46242;-82
2023/09/15 08:08:07;;;;;;;2.03;1.40;;;22.70;53.70;;;;;;4992249;28;45399;-83
2023/09/15 08:10:33;;;;;;;1.83;1.60;;;22.70;53.70;;;;;;4966707;28;45526;-81
2023/09/15 08:12:58;;;;;;;1.67;1.52;;;22.70;53.70;;;;;;4973840;28;44858;-83
2023/09/15 08:15:24;;;;;;;1.52;1.38;;;22.70;53.70;;;;;;4988440;28;45342;-80
2023/09/15 08:17:55;;;;;;;1.98;1.40;;;22.70;53.70;;;;;;4937434;28;60390;-83
2023/09/15 08:20:21;;;;;;;1.52;1.42;;;22.70;53.70;;;;;;4937592;28;45468;-81
2023/09/15 08:22:49;;;;;;;2.75;1.70;;;22.70;53.70;;;;;;4970382;28;45172;-81
2023/09/15 08:25:14;;;;;;;2.05;1.65;;;22.70;53.70;;;;;;4937122;28;45379;-85
2023/09/15 08:27:40;;;;;;;1.55;1.42;;;22.70;53.70;;;;;;4940766;28;45344;-83
2023/09/15 08:30:29;;;;;;;2.20;1.27;;;22.70;53.70;;;;;;4953294;28;46704;-88
2023/09/15 08:32:55;;;;;;;2.65;1.40;;;22.70;53.50;;;;;;4952593;28;46217;-81
2023/09/15 08:35:21;;;;;;;2.95;1.60;;;22.60;53.70;;;;;;4956311;28;46088;-81
2023/09/15 08:37:48;;;;;;;1.40;1.30;;;22.70;53.70;;;;;;4939925;28;45717;-82
2023/09/15 08:40:14;;;;;;;1.55;1.40;;;22.70;53.70;;;;;;4961423;28;46617;-84
2023/09/15 08:42:40;;;;;;;2.15;1.48;;;22.70;53.70;;;;;;4932554;28;45292;-85
2023/09/15 08:45:07;;;;;;;2.28;1.30;;;22.70;53.70;;;;;;4923212;28;45168;-87
2023/09/15 08:47:34;;;;;;;1.40;1.20;;;22.70;53.70;;;;;;4929008;28;45324;-81
2023/09/15 08:50:01;;;;;;;1.63;1.20;;;22.70;53.70;;;;;;4972870;28;45197;-82
2023/09/15 08:52:27;;;;;;;1.80;1.40;;;22.70;53.70;;;;;;4922440;28;45295;-84
2023/09/15 08:54:53;;;;;;;2.10;1.60;;;22.70;53.70;;;;;;4960443;28;45243;-80
2023/09/15 08:57:19;;;;;;;1.42;1.30;;;22.70;53.70;;;;;;4952591;28;45698;-84
2023/09/15 08:59:44;;;;;;;1.98;1.27;;;22.70;53.80;;;;;;4939892;28;47241;-83
2023/09/15 09:02:11;;;;;;;1.88;1.20;;;22.70;53.80;;;;;;4943234;28;45313;-83
2023/09/15 09:04:38;;;;;;;1.65;1.27;;;22.70;53.70;;;;;;4942586;28;45789;-80
2023/09/15 09:07:05;;;;;;;1.50;1.40;;;22.70;53.70;;;;;;4956184;28;45638;-81
2023/09/15 09:09:30;;;;;;;1.45;1.30;;;22.70;53.70;;;;;;4936067;28;45819;-81
2023/09/15 09:11:57;;;;;;;1.88;1.20;;;22.70;53.80;;;;;;4937416;28;45277;-83
2023/09/15 09:14:24;;;;;;;1.42;1.00;;;22.70;53.80;;;;;;4935515;28;45382;-81
2023/09/15 09:16:49;;;;;;;1.60;1.15;;;22.70;53.80;;;;;;4962534;28;45425;-83
2023/09/15 09:19:15;;;;;;;1.42;1.10;;;22.70;53.80;;;;;;4952962;28;45829;-83
2023/09/15 09:21:41;;;;;;;1.23;1.13;;;22.70;53.80;;;;;;4934664;28;45491;-82
2023/09/15 09:24:09;;;;;;;1.83;1.30;;;22.70;53.80;;;;;;4962559;28;45254;-82
2023/09/15 09:26:34;;;;;;;1.45;1.20;;;22.70;53.80;;;;;;4946859;28;45257;-81
2023/09/15 09:29:02;;;;;;;1.67;1.35;;;22.70;53.80;;;;;;4924515;28;46438;-82
2023/09/15 09:31:28;;;;;;;1.73;1.20;;;22.70;53.80;;;;;;4959088;28;45590;-81
2023/09/15 09:33:54;;;;;;;1.33;1.23;;;22.70;53.80;;;;;;4957358;28;45730;-82
2023/09/15 09:36:20;;;;;;;1.60;1.50;;;22.70;53.80;;;;;;4961409;28;46282;-82
2023/09/15 09:38:51;;;;;;;1.52;1.38;;;22.70;53.80;;;;;;4953619;28;46071;-82
2023/09/15 09:41:18;;;;;;;1.42;1.13;;;22.70;53.70;;;;;;4946726;28;45357;-84
2023/09/15 09:43:48;;;;;;;1.83;1.02;;;22.70;53.80;;;;;;4962810;28;46379;-81
2023/09/15 09:46:15;;;;;;;1.17;0.98;;;22.70;53.80;;;;;;4928620;28;45189;-85
2023/09/15 09:48:41;;;;;;;1.27;1.13;;;22.70;53.80;;;;;;4949783;28;45783;-82
2023/09/15 09:51:07;;;;;;;2.85;1.20;;;22.70;53.80;;;;;;4945111;28;46361;-81
2023/09/15 09:53:34;;;;;;;1.50;1.20;;;22.70;53.80;;;;;;4922241;28;45005;-88
2023/09/15 09:56:03;;;;;;;1.58;1.25;;;22.70;53.80;;;;;;4929570;28;45254;-81
2023/09/15 09:58:30;;;;;;;1.60;1.30;;;22.70;53.90;;;;;;4961164;28;45155;-81
2023/09/15 10:00:56;;;;;;;1.40;1.20;;;22.70;53.80;;;;;;4914995;28;45629;-86
2023/09/15 10:03:21;;;;;;;1.85;1.30;;;22.70;53.90;;;;;;4954888;28;45799;-83
2023/09/15 10:05:48;;;;;;;1.23;1.13;;;22.70;53.90;;;;;;4936326;28;44794;-85
2023/09/15 10:08:14;;;;;;;3.10;1.35;;;22.70;53.90;;;;;;4952671;28;46241;-83
2023/09/15 10:10:43;;;;;;;1.17;1.08;;;22.70;53.90;;;;;;4934974;28;45830;-83
2023/09/15 10:13:12;;;;;;;2.65;1.23;;;22.70;53.90;;;;;;4963826;28;46064;-80
2023/09/15 10:15:42;;;;;;;2.55;1.20;;;22.70;53.90;;;;;;4925772;28;45303;-81
2023/09/15 10:18:09;;;;;;;1.30;1.15;;;22.70;53.90;;;;;;4959897;28;45504;-81
2023/09/15 10:20:38;;;;;;;1.95;1.15;;;22.70;53.90;;;;;;4945250;28;44993;-83
2023/09/15 10:23:05;;;;;;;1.23;1.00;;;22.70;53.90;;;;;;4960189;28;46263;-83
2023/09/15 10:25:44;;;;;;;1.40;1.30;;;22.70;53.90;;;;;;4971904;28;45161;-80
2023/09/15 10:28:21;;;;;;;1.30;1.20;;;22.80;53.80;;;;;;4973720;28;45673;-83
2023/09/15 10:30:46;;;;;;;1.77;1.40;;;22.70;53.80;;;;;;4937546;28;45820;-83
2023/09/15 10:33:12;;;;;;;3.03;1.17;;;22.80;54.00;;;;;;4934758;28;45236;-86
2023/09/15 10:35:39;;;;;;;1.65;1.35;;;22.80;54.00;;;;;;4967834;28;44697;-82
2023/09/15 10:38:05;;;;;;;1.13;0.93;;;22.80;54.00;;;;;;4933441;28;45687;-80
2023/09/15 10:40:47;;;;;;;1.27;1.13;;;22.80;54.00;;;;;;4970932;28;45916;-80
2023/09/15 10:43:13;;;;;;;1.75;1.40;;;22.80;53.90;;;;;;4961187;28;46164;-80
2023/09/15 10:45:39;;;;;;;1.30;1.10;;;22.80;54.00;;;;;;4943306;28;45199;-80
2023/09/15 10:48:05;;;;;;;1.30;1.20;;;22.80;54.00;;;;;;4959971;28;45249;-87
2023/09/15 10:50:32;;;;;;;1.52;1.08;;;22.80;54.00;;;;;;4948204;28;45428;-85
2023/09/15 10:53:11;;;;;;;1.80;1.48;;;22.80;54.10;;;;;;4946562;28;45213;-81
2023/09/15 10:55:37;;;;;;;1.77;1.23;;;22.80;54.00;;;;;;4957343;28;46663;-83
2023/09/15 10:58:04;;;;;;;1.20;1.10;;;22.80;54.10;;;;;;4932664;28;46007;-81
2023/09/15 11:00:33;;;;;;;1.27;1.17;;;22.80;54.10;;;;;;4949862;28;45327;-83
2023/09/15 11:02:59;;;;;;;1.20;1.10;;;22.80;54.10;;;;;;4936781;28;45851;-81
2023/09/15 11:05:26;;;;;;;1.30;1.20;;;22.80;54.10;;;;;;4927109;28;46213;-82
2023/09/15 11:07:56;;;;;;;1.30;1.20;;;22.80;54.10;;;;;;4927204;28;48627;-82
2023/09/15 11:10:34;;;;;;;1.50;1.40;;;22.80;54.10;;;;;;4923675;28;44716;-82
2023/09/15 11:13:03;;;;;;;1.80;1.40;;;22.80;54.00;;;;;;4947900;28;45379;-84
2023/09/15 11:15:29;;;;;;;1.95;1.30;;;22.80;54.10;;;;;;4953673;28;45671;-82
2023/09/15 11:17:54;;;;;;;1.75;1.17;;;22.80;54.10;;;;;;4954778;28;46274;-81
2023/09/15 11:20:21;;;;;;;1.33;1.15;;;22.80;54.20;;;;;;4910559;28;46344;-81
2023/09/15 11:22:47;;;;;;;1.50;1.23;;;22.80;54.80;;;;;;4937519;28;45345;-83
2023/09/15 11:25:15;;;;;;;3.33;1.33;;;22.80;54.20;;;;;;4970145;28;45868;-87
2023/09/15 11:27:41;;;;;;;1.80;1.25;;;22.80;54.20;;;;;;4941229;28;46416;-82
2023/09/15 11:30:07;;;;;;;1.95;1.35;;;22.80;54.20;;;;;;4954331;28;45159;-87
2023/09/15 11:32:34;;;;;;;1.77;1.55;;;22.80;54.20;;;;;;4937199;28;45875;-81
2023/09/15 11:35:05;;;;;;;1.63;1.20;;;22.80;54.20;;;;;;4970365;28;45310;-86
2023/09/15 11:37:31;;;;;;;4.15;1.30;;;22.80;54.30;;;;;;4928720;28;46448;-85
2023/09/15 11:39:57;;;;;;;2.55;1.33;;;22.80;54.30;;;;;;4965371;28;45748;-83
2023/09/15 11:42:24;;;;;;;2.85;1.40;;;22.80;54.20;;;;;;4944958;28;45440;-81
2023/09/15 11:44:50;;;;;;;1.40;1.30;;;22.80;54.30;;;;;;4925499;28;45521;-82
2023/09/15 11:47:16;;;;;;;3.22;1.23;;;22.80;54.30;;;;;;4935278;28;46606;-81
2023/09/15 11:49:42;;;;;;;3.20;1.15;;;22.80;54.30;;;;;;4955874;28;45367;-82
2023/09/15 11:52:09;;;;;;;1.77;1.30;;;22.80;54.30;;;;;;4937731;28;45193;-82
2023/09/15 11:54:35;;;;;;;1.30;1.10;;;22.80;54.30;;;;;;4971432;28;46104;-83
2023/09/15 11:57:02;;;;;;;2.75;1.30;;;22.80;54.30;;;;;;4944438;28;45946;-81
2023/09/15 11:59:28;;;;;;;1.40;1.30;;;22.80;54.30;;;;;;4941607;28;45130;-83
2023/09/15 12:01:56;;;;;;;1.80;1.55;;;22.80;54.30;;;;;;4905319;28;45125;-83
2023/09/15 12:04:23;;;;;;;1.50;1.20;;;22.80;54.30;;;;;;4943561;28;45679;-81
2023/09/15 12:06:49;;;;;;;1.38;1.20;;;22.80;54.40;;;;;;4954840;28;45935;-84
2023/09/15 12:09:15;;;;;;;2.80;1.40;;;22.80;54.30;;;;;;4954600;28;45434;-86
2023/09/15 12:11:44;;;;;;;1.58;1.40;;;22.80;54.40;;;;;;4924349;28;46238;-82
2023/09/15 12:14:15;;;;;;;1.38;1.27;;;22.80;54.40;;;;;;4973452;28;44765;-84
2023/09/15 12:16:47;;;;;;;2.03;1.15;;;22.80;54.40;;;;;;4968224;28;45494;-84
2023/09/15 12:19:17;;;;;;;1.58;1.30;;;22.80;54.40;;;;;;4930643;28;45160;-82
2023/09/15 12:21:53;;;;;;;1.60;1.45;;;22.80;54.40;;;;;;4945782;28;45184;-82
2023/09/15 12:24:21;;;;;;;1.65;1.30;;;22.80;54.30;;;;;;4962521;28;44757;-83
2023/09/15 12:26:47;;;;;;;1.65;1.30;;;22.90;54.40;;;;;;4922529;28;46112;-84
2023/09/15 12:29:16;;;;;;;1.25;1.10;;;22.80;54.40;;;;;;4926228;28;45483;-81
2023/09/15 12:31:44;;;;;;;1.50;1.17;;;22.80;54.40;;;;;;4952303;28;45256;-82
2023/09/15 12:34:18;;;;;;;1.70;1.50;;;22.80;54.40;;;;;;4954615;28;45777;-82
2023/09/15 12:36:47;;;;;;;1.42;1.33;;;22.80;54.40;;;;;;4920168;28;45231;-84
2023/09/15 12:39:13;;;;;;;1.73;1.40;;;22.80;54.60;;;;;;4938157;28;46095;-81
2023/09/15 12:41:39;;;;;;;1.55;1.20;;;22.80;54.50;;;;;;4953382;28;45278;-83
2023/09/15 12:44:05;;;;;;;3.83;1.35;;;22.80;54.50;;;;;;4957701;28;45629;-82
2023/09/15 12:46:32;;;;;;;1.48;1.38;;;22.90;54.50;;;;;;4967851;28;45529;-82
2023/09/15 12:48:57;;;;;;;1.92;1.73;;;22.80;54.50;;;;;;4970292;28;45727;-83
2023/09/15 12:51:23;;;;;;;1.95;1.40;;;22.80;54.50;;;;;;4953905;28;45786;-81
2023/09/15 12:53:49;;;;;;;1.63;1.52;;;22.80;54.50;;;;;;4933060;28;46199;-84
2023/09/15 12:56:15;;;;;;;2.33;1.27;;;22.90;54.50;;;;;;4953209;28;46433;-84
2023/09/15 12:58:41;;;;;;;2.08;1.25;;;22.80;54.50;;;;;;4953402;28;45466;-82
2023/09/15 13:01:07;;;;;;;1.35;1.10;;;22.80;54.50;;;;;;4948258;28;46246;-85
2023/09/15 13:03:33;;;;;;;1.38;1.27;;;22.90;54.60;;;;;;4942930;28;45985;-82
2023/09/15 13:05:58;;;;;;;2.33;1.38;;;22.90;54.60;;;;;;4943475;28;46640;-82
2023/09/15 13:08:24;;;;;;;2.10;1.08;;;22.80;54.60;;;;;;4909219;28;46125;-83
2023/09/15 13:10:50;;;;;;;1.33;1.20;;;22.90;54.60;;;;;;4950891;28;45256;-89
2023/09/15 13:13:16;;;;;;;2.05;1.60;;;22.90;54.60;;;;;;4940598;28;45332;-85
2023/09/15 13:15:42;;;;;;;2.05;1.20;;;22.80;54.60;;;;;;4949378;28;45322;-81
2023/09/15 13:18:08;;;;;;;1.50;1.40;;;22.80;54.60;;;;;;4938579;28;44721;-81
2023/09/15 13:20:34;;;;;;;1.83;1.30;;;22.90;54.60;;;;;;4955205;28;44722;-83
2023/09/15 13:23:00;;;;;;;1.50;1.40;;;22.90;54.60;;;;;;4942917;28;44940;-82
2023/09/15 13:25:26;;;;;;;1.05;0.93;;;22.90;54.70;;;;;;4904624;28;46396;-83
2023/09/15 13:27:53;;;;;;;1.77;1.35;;;22.80;54.60;;;;;;4936864;28;45685;-88
2023/09/15 13:30:18;;;;;;;1.60;1.38;;;22.90;54.70;;;;;;4943550;28;44685;-85
2023/09/15 13:32:44;;;;;;;0.90;0.90;;;22.80;54.70;;;;;;4909753;28;45612;-82
2023/09/15 13:35:11;;;;;;;1.42;1.25;;;22.90;54.70;;;;;;4959865;28;45671;-84
2023/09/15 13:37:36;;;;;;;1.52;1.20;;;22.90;54.70;;;;;;4958625;28;45768;-83
2023/09/15 13:40:06;;;;;;;2.08;1.30;;;22.90;54.70;;;;;;4938771;28;45798;-88
2023/09/15 13:42:34;;;;;;;1.63;1.27;;;22.90;54.80;;;;;;4957284;28;46396;-83
2023/09/15 13:45:00;;;;;;;1.52;1.25;;;22.80;54.70;;;;;;4975313;28;46350;-83
2023/09/15 13:47:32;;;;;;;1.33;1.10;;;22.90;54.80;;;;;;4917167;28;45824;-83
2023/09/15 13:49:59;;;;;;;2.22;1.30;;;22.90;54.70;;;;;;4929175;28;45761;-81
2023/09/15 13:52:25;;;;;;;1.40;1.30;;;22.90;54.80;;;;;;4951321;28;45677;-81
2023/09/15 13:54:52;;;;;;;1.45;1.20;;;22.80;54.70;;;;;;4962000;28;47122;-80
2023/09/15 13:57:18;;;;;;;1.67;1.30;;;22.90;54.80;;;;;;4944599;28;45759;-82
2023/09/15 13:59:44;;;;;;;1.60;1.20;;;22.80;54.80;;;;;;4958490;28;46778;-83
2023/09/15 14:02:10;;;;;;;1.40;1.20;;;22.90;54.80;;;;;;4936870;28;45738;-82
2023/09/15 14:04:36;;;;;;;1.52;1.40;;;22.90;54.80;;;;;;4945814;28;46740;-83
2023/09/15 14:07:05;;;;;;;1.52;1.30;;;22.80;54.80;;;;;;4930989;28;45481;-84
2023/09/15 14:09:31;;;;;;;0.95;0.90;;;22.90;54.90;;;;;;4974408;28;45163;-81
2023/09/15 14:11:57;;;;;;;1.40;1.30;;;22.90;54.80;;;;;;4941599;28;45743;-82
2023/09/15 14:14:23;;;;;;;1.35;1.25;;;22.90;54.90;;;;;;4959891;28;45894;-82
2023/09/15 14:16:50;;;;;;;3.05;1.65;;;22.90;54.80;;;;;;4953454;28;45575;-83
2023/09/15 14:19:17;;;;;;;1.25;1.15;;;22.90;54.90;;;;;;4958234;28;45188;-83
2023/09/15 14:21:44;;;;;;;1.40;1.10;;;22.90;54.90;;;;;;4962509;28;45366;-83
2023/09/15 14:24:13;;;;;;;1.52;1.23;;;22.90;54.90;;;;;;4945221;28;47003;-82
2023/09/15 14:26:38;;;;;;;1.27;1.17;;;22.90;54.90;;;;;;4945578;28;45209;-83
2023/09/15 14:29:04;;;;;;;1.67;1.25;;;22.90;54.90;;;;;;4953245;28;45322;-85
2023/09/15 14:31:31;;;;;;;1.25;1.13;;;22.80;54.90;;;;;;4961617;28;45548;-84
2023/09/15 14:33:59;;;;;;;2.38;1.35;;;22.90;54.90;;;;;;4973390;28;45998;-83
2023/09/15 14:36:26;;;;;;;1.58;1.30;;;22.90;54.90;;;;;;4942684;28;45493;-84
2023/09/15 14:38:52;;;;;;;1.23;1.13;;;22.90;54.90;;;;;;4978325;28;45115;-83
2023/09/15 14:41:18;;;;;;;1.65;1.23;;;22.90;54.90;;;;;;4945419;28;45622;-82
2023/09/15 14:43:44;;;;;;;1.48;1.38;;;22.90;55.00;;;;;;4945855;28;46392;-82
2023/09/15 14:46:11;;;;;;;1.30;1.20;;;22.90;55.20;;;;;;4957584;28;46310;-82
2023/09/15 14:48:37;;;;;;;1.75;1.25;;;22.90;55.00;;;;;;4945800;28;45330;-83
2023/09/15 14:51:02;;;;;;;2.20;1.17;;;22.90;55.00;;;;;;4959509;28;45484;-83
2023/09/15 14:53:29;;;;;;;1.65;1.55;;;22.90;55.00;;;;;;4925245;28;46323;-87
2023/09/15 14:55:54;;;;;;;1.38;1.27;;;22.90;55.00;;;;;;4955655;28;44713;-86
2023/09/15 14:58:21;;;;;;;1.77;1.48;;;22.90;55.00;;;;;;4967331;28;45287;-81
2023/09/15 15:00:47;;;;;;;2.15;1.33;;;22.90;55.00;;;;;;4954908;28;45137;-82
2023/09/15 15:03:13;;;;;;;1.23;1.10;;;22.90;55.00;;;;;;4940450;28;45569;-82
2023/09/15 15:05:39;;;;;;;1.35;1.25;;;22.90;55.00;;;;;;4956818;28;45602;-83
2023/09/15 15:08:05;;;;;;;2.67;1.15;;;22.90;55.10;;;;;;4944319;28;45291;-84
2023/09/15 15:10:31;;;;;;;1.45;1.30;;;22.90;55.00;;;;;;4954486;28;45396;-84
2023/09/15 15:12:58;;;;;;;1.40;1.30;;;22.90;55.10;;;;;;4972831;28;45268;-81
2023/09/15 15:15:24;;;;;;;1.25;1.15;;;22.90;55.00;;;;;;4939483;28;45316;-83
2023/09/15 15:17:50;;;;;;;1.35;1.25;;;22.90;55.00;;;;;;4960042;28;45120;-82
2023/09/15 15:20:17;;;;;;;1.75;1.20;;;22.90;55.10;;;;;;4972638;28;45043;-87
2023/09/15 15:22:42;;;;;;;1.45;1.35;;;22.90;55.10;;;;;;4972161;28;46100;-82
2023/09/15 15:25:08;;;;;;;2.25;1.30;;;22.90;55.10;;;;;;4910847;28;45835;-84
2023/09/15 15:27:34;;;;;;;1.48;1.38;;;22.90;55.10;;;;;;4941859;28;45352;-84
2023/09/15 15:30:00;;;;;;;2.08;1.73;;;22.90;55.10;;;;;;4948302;28;45742;-83
2023/09/15 15:32:26;;;;;;;1.48;1.13;;;22.90;55.10;;;;;;4938284;28;45365;-87
2023/09/15 15:34:55;;;;;;;1.35;1.25;;;22.90;55.10;;;;;;4940211;28;45786;-85
2023/09/15 15:37:22;;;;;;;1.63;1.10;;;22.90;55.10;;;;;;4955623;28;45268;-84
2023/09/15 15:39:48;;;;;;;1.30;1.20;;;22.90;55.10;;;;;;4973729;28;45279;-82
2023/09/15 15:42:13;;;;;;;2.85;1.42;;;22.90;55.10;;;;;;4970434;28;45423;-82
2023/09/15 15:44:39;;;;;;;1.60;1.23;;;22.90;55.10;;;;;;4940542;28;45660;-82
2023/09/15 15:47:07;;;;;;;1.40;1.30;;;22.90;55.10;;;;;;4968556;28;45055;-82